YSFY weather

Sandfly Airport
Tasmania, Australia

Public forecast

Using degrees Celsius for public forecast. Weather courtesy of forecast.io.

Closest aviation weather report (METAR) to Sandfly Airport

Closest report is Hobart International Airport, 16.2 nm (30.1 km) NE. Retrieved 2020/03/31 07:30 UTC (12 minutes ago):

YMHB 310730Z 34006KT 9999 FEW045 SCT065 18/09 Q1013 RF000/0000

Closest aviation forecast (TAF) to Sandfly Airport

Closest forecast is Hobart International Airport, 16.2 nm (30.1 km) NE. Retrieved 2020/03/31 06:36 UTC (1 hour ago):

TAF YMHB 310502Z 3106/0106 34008KT 9999 SCT045 BECMG 3112/3114 31008KT 9999 SCT025 BKN030 FM010000 31005KT 9999 FEW030 BKN040 FM010300 12008KT 9999 SCT040